Saint Johnsbury Center, Vermont
Current Conditions -  °F | °C
As of 11:15 AM on Friday 21 Nov 2014 (Local Time) from KCDA Reporting Station
Light Snow Light Snow  
Wind Chill:   Ceiling: 1700
Heat Index: 21°   Visibility: 4mi
Dew Point: 12°   Wind: 14mph
Humidity: 68%   Direction: 250°WSW
Pressure: 30.08"   Gusts: 18mph
Location:  44.46°N, 72.01°W
Report Text: KCDA 211615Z AUTO 25012G16KT 4SM -SN BKN017 OVC022 M06/M11 A3008 RMK AO2 T10621113
Loading
Personal Weather Stations






























Interactive Weather Map New forecast layout! Learn more

10-Day Weather Forecast

Advertisements
Track Severe Weather on mobile